aviador You're here:

NWWW Decoded Metar

NOUMEA in NEW CALEDONIA
Report Time2017-04-30 14:30:00
UTC Time2017-04-30 14:55:35
Flight Rules vfr VFR
WindCalm
Visibility9999 m
Phenomena:N/A
Clouds:Few 044 Hf
Scattered 050 Hf
Overcast 068 Hf
Expected CloudBase > 800 ft AGL from Temp-Dew spread
Ceiling6,800 ft
Temp19°C (ISA +4)
Dew Point17°C (88% RH)
QNH1013 hPa
Density Alt791 ft
Elevation52 ft
Report Wrong Elevation
Raw Report
NWWW 301430Z AUTO 00000KT 9999 FEW044 SCT050 OVC068 19/17 Q1013
NOSIG=

Extra information for NWWW:More info

Metar Taf Metar & Taf Last 4 Metars F.Rules Stats Wind Profile Meteogram Temp Stats Airport Information Weather charts Add Link Nearby VenuesMetar ALERT Operation Metar Decoded Social comments